Time;durP1;ratioP1;P1;durP2;ratioP2;P2;SDS_P1;SDS_P2;PMS_P1;PMS_P2;Temp;Humidity;BMP_temperature;BMP_pressure;BME280_temperature;BME280_humidity;BME280_pressure;Samples;Min_cycle;Max_cycle;Signal;HPM_P1;HPM_P2
2022/05/21 00:00:38;;;;;;;8.00;3.80;;;23.60;1.00;;;;;;5008222;28;20034;-43
2022/05/21 00:03:04;;;;;;;5.18;3.17;;;23.60;1.00;;;;;;4995528;28;20100;-42
2022/05/21 00:05:35;;;;;;;6.18;3.90;;;23.70;1.00;;;;;;5007113;28;20079;-48
2022/05/21 00:08:01;;;;;;;3.60;3.30;;;23.60;1.00;;;;;;5014163;28;20105;-47
2022/05/21 00:10:28;;;;;;;9.48;4.47;;;23.50;1.00;;;;;;5014255;28;20068;-47
2022/05/21 00:12:54;;;;;;;5.72;3.63;;;23.80;1.00;;;;;;5014688;28;20030;-45
2022/05/21 00:15:23;;;;;;;4.32;3.78;;;23.60;1.00;;;;;;5003714;28;20042;-44
2022/05/21 00:17:49;;;;;;;4.70;3.88;;;23.50;1.00;;;;;;5004532;28;20159;-43
2022/05/21 00:23:12;;;;;;;5.82;3.47;;;23.80;1.00;;;;;;5014570;28;20044;-45
2022/05/21 00:25:38;;;;;;;4.50;3.55;;;23.80;1.00;;;;;;5013336;28;20030;-42
2022/05/21 00:28:04;;;;;;;5.60;3.35;;;23.70;1.00;;;;;;5014517;28;20037;-44
2022/05/21 00:30:30;;;;;;;4.45;3.70;;;23.70;1.00;;;;;;5013580;28;20040;-49
2022/05/21 00:32:55;;;;;;;7.40;4.15;;;23.80;1.00;;;;;;5013194;28;20037;-47
2022/05/21 00:35:21;;;;;;;5.97;4.20;;;23.80;1.00;;;;;;5013192;28;20029;-45
2022/05/21 00:37:47;;;;;;;5.35;3.72;;;23.90;1.00;;;;;;5013067;28;20026;-44
2022/05/21 00:40:12;;;;;;;4.70;3.85;;;23.80;1.00;;;;;;5013303;28;20403;-42
2022/05/21 00:42:43;;;;;;;9.35;3.63;;;23.90;1.00;;;;;;5012730;28;20057;-51
2022/05/21 00:45:09;;;;;;;7.10;3.85;;;23.80;1.00;;;;;;5013173;28;20353;-51
2022/05/21 00:47:36;;;;;;;6.22;4.00;;;23.80;1.00;;;;;;5013140;28;20033;-43
2022/05/21 00:50:02;;;;;;;5.00;3.70;;;23.60;1.00;;;;;;5012805;28;20025;-45
2022/05/21 00:52:28;;;;;;;3.92;3.63;;;23.60;1.00;;;;;;5014217;28;20076;-43
2022/05/21 00:54:58;;;;;;;8.98;3.67;;;23.60;1.00;;;;;;5012609;28;20018;-42
2022/05/21 00:57:23;;;;;;;5.97;3.95;;;23.80;1.00;;;;;;5012997;28;20491;-45
2022/05/21 00:59:54;;;;;;;5.45;3.97;;;23.40;1.00;;;;;;5012458;28;20117;-43
2022/05/21 01:02:33;;;;;;;5.35;3.90;;;23.70;1.00;;;;;;5011195;28;20054;-49
2022/05/21 01:05:02;;;;;;;3.83;3.53;;;23.70;1.00;;;;;;5013276;28;20026;-46
2022/05/21 01:07:30;;;;;;;5.15;3.53;;;23.70;1.00;;;;;;5012539;28;20476;-43
2022/05/21 01:09:58;;;;;;;7.63;4.00;;;23.60;1.00;;;;;;5008397;28;20022;-42
2022/05/21 01:16:33;;;;;;;6.43;3.83;;;23.50;1.00;;;;;;5005664;28;20044;-43
2022/05/21 01:18:59;;;;;;;5.72;3.63;;;23.30;1.00;;;;;;4995091;28;20084;-42
2022/05/21 01:21:24;;;;;;;4.22;3.60;;;23.40;1.00;;;;;;5011314;28;20498;-43
2022/05/21 01:23:50;;;;;;;4.72;4.13;;;23.50;1.00;;;;;;5011191;28;20177;-44
2022/05/21 01:26:21;;;;;;;5.75;3.65;;;23.20;1.00;;;;;;5009031;28;20030;-44
2022/05/21 01:28:48;;;;;;;7.70;4.00;;;23.30;1.00;;;;;;5011916;28;20069;-45
2022/05/21 01:31:13;;;;;;;6.30;4.00;;;23.50;1.00;;;;;;5009156;28;20017;-45
2022/05/21 01:33:44;;;;;;;6.20;3.80;;;23.50;1.00;;;;;;5012705;28;20025;-44
2022/05/21 01:36:10;;;;;;;8.70;4.20;;;23.50;1.00;;;;;;5011657;28;20041;-42
2022/05/21 01:38:37;;;;;;;4.78;3.58;;;23.20;1.00;;;;;;5012445;28;20033;-42
2022/05/21 01:41:05;;;;;;;4.43;4.00;;;23.30;1.00;;;;;;5011465;28;20026;-46
2022/05/21 01:46:16;;;;;;;5.30;3.50;;;23.40;1.00;;;;;;5011098;28;20165;-45
2022/05/21 01:48:42;;;;;;;4.85;3.75;;;23.40;1.00;;;;;;5013061;28;20525;-47
2022/05/21 01:51:09;;;;;;;7.85;3.90;;;23.40;1.00;;;;;;5012149;28;20464;-45
2022/05/21 01:53:36;;;;;;;5.30;3.72;;;23.30;1.00;;;;;;5013089;28;20034;-46
2022/05/21 01:56:03;;;;;;;4.93;4.03;;;23.20;1.00;;;;;;5011961;28;20038;-47
2022/05/21 01:58:29;;;;;;;6.32;3.95;;;23.30;1.00;;;;;;5011101;28;20498;-46
2022/05/21 02:00:58;;;;;;;6.63;4.00;;;23.40;1.00;;;;;;5008420;28;20034;-50
2022/05/21 02:03:24;;;;;;;6.60;4.63;;;23.50;1.00;;;;;;5006856;28;20030;-45
2022/05/21 02:05:50;;;;;;;6.57;3.97;;;23.40;1.00;;;;;;5011995;28;20112;-42
2022/05/21 02:08:17;;;;;;;5.85;3.63;;;23.40;1.00;;;;;;5012608;28;20061;-43
2022/05/21 02:10:44;;;;;;;6.70;4.78;;;23.20;1.00;;;;;;5011661;28;20040;-46
2022/05/21 02:13:20;;;;;;;4.70;3.40;;;23.20;1.00;;;;;;5011909;28;20053;-50
2022/05/21 02:15:46;;;;;;;5.45;3.97;;;23.20;1.00;;;;;;5011540;28;20079;-44
2022/05/21 02:18:13;;;;;;;4.88;3.88;;;23.20;1.00;;;;;;5012743;28;20127;-46
2022/05/21 02:20:39;;;;;;;5.47;4.13;;;23.20;1.00;;;;;;5011820;28;20507;-46
2022/05/21 02:23:05;;;;;;;5.78;4.45;;;23.20;1.00;;;;;;5011529;28;20022;-45
2022/05/21 02:25:31;;;;;;;5.18;4.40;;;23.10;1.00;;;;;;5015111;28;20089;-48
2022/05/21 02:27:57;;;;;;;5.65;4.22;;;23.10;1.00;;;;;;5010776;28;20042;-43
2022/05/21 02:30:22;;;;;;;7.82;4.32;;;23.20;1.00;;;;;;5002130;28;20025;-47
2022/05/21 02:32:48;;;;;;;3.97;3.58;;;23.10;1.00;;;;;;5016822;28;20028;-42
2022/05/21 02:35:14;;;;;;;5.32;3.97;;;23.10;1.00;;;;;;5016102;28;20084;-46
2022/05/21 02:40:25;;;;;;;4.82;3.30;;;23.10;1.00;;;;;;5015938;28;20040;-43
2022/05/21 02:42:50;;;;;;;5.07;4.20;;;23.10;1.00;;;;;;5016404;28;20065;-42
2022/05/21 02:45:25;;;;;;;5.43;3.90;;;22.90;1.00;;;;;;5015538;28;20449;-50
2022/05/21 02:47:51;;;;;;;5.20;4.00;;;22.80;1.00;;;;;;5016434;28;20025;-49
2022/05/21 02:50:21;;;;;;;6.50;4.10;;;22.90;1.00;;;;;;5015680;28;20018;-45
2022/05/21 02:52:46;;;;;;;8.75;4.50;;;22.80;1.00;;;;;;5014848;28;20109;-43
2022/05/21 02:55:14;;;;;;;6.20;4.20;;;22.90;1.00;;;;;;5014099;28;20124;-50
2022/05/21 02:57:40;;;;;;;6.70;3.97;;;23.00;1.00;;;;;;5014078;28;20072;-47
2022/05/21 03:00:14;;;;;;;6.45;4.10;;;22.80;1.00;;;;;;5014820;28;20026;-48
2022/05/21 03:02:40;;;;;;;6.65;4.30;;;23.00;1.00;;;;;;5015698;28;20149;-45
2022/05/21 03:05:07;;;;;;;8.07;4.38;;;23.10;1.00;;;;;;5015283;28;20057;-46
2022/05/21 03:07:47;;;;;;;4.38;3.97;;;23.00;1.00;;;;;;5014630;28;20541;-47
2022/05/21 03:10:21;;;;;;;6.38;3.85;;;22.80;1.00;;;;;;5014956;28;20053;-46
2022/05/21 03:12:57;;;;;;;6.00;3.85;;;22.80;1.00;;;;;;5016136;28;20022;-48
2022/05/21 03:15:31;;;;;;;6.18;4.47;;;22.60;1.00;;;;;;5014556;28;20033;-43
2022/05/21 03:17:56;;;;;;;6.85;4.90;;;22.50;1.00;;;;;;5015854;28;20077;-44
2022/05/21 03:20:22;;;;;;;6.57;4.38;;;22.60;1.00;;;;;;5014404;28;20026;-44
2022/05/21 03:22:49;;;;;;;7.38;4.80;;;22.70;1.00;;;;;;5015711;28;20036;-46
2022/05/21 03:25:15;;;;;;;5.88;4.15;;;22.60;1.00;;;;;;5014652;28;20155;-44
2022/05/21 03:27:41;;;;;;;5.10;4.40;;;22.70;1.00;;;;;;5015967;28;20034;-46
2022/05/21 03:30:10;;;;;;;5.70;4.28;;;22.70;1.00;;;;;;5010737;28;20022;-45
2022/05/21 03:32:36;;;;;;;9.30;4.88;;;22.80;1.00;;;;;;5000786;28;20037;-45
2022/05/21 03:35:02;;;;;;;6.80;4.53;;;22.60;1.00;;;;;;5015438;28;20352;-46
2022/05/21 03:37:28;;;;;;;8.35;4.90;;;22.60;1.00;;;;;;5003608;28;20037;-48
2022/05/21 03:39:54;;;;;;;8.13;4.70;;;22.70;1.00;;;;;;5015224;28;20022;-45
2022/05/21 03:42:19;;;;;;;6.93;4.63;;;22.40;1.00;;;;;;5014470;28;20030;-48
2022/05/21 03:44:46;;;;;;;7.90;4.97;;;22.60;1.00;;;;;;5014813;28;20029;-49
2022/05/21 03:47:13;;;;;;;6.20;5.22;;;22.50;1.00;;;;;;5014251;28;20025;-46
2022/05/21 03:49:39;;;;;;;5.25;4.72;;;22.40;1.00;;;;;;5015134;28;20107;-43
2022/05/21 03:52:06;;;;;;;6.10;4.72;;;22.40;1.00;;;;;;5014160;28;20491;-48
2022/05/21 03:54:32;;;;;;;7.93;5.35;;;22.60;1.00;;;;;;5013013;28;20084;-44
2022/05/21 03:56:58;;;;;;;5.75;4.65;;;22.50;1.00;;;;;;5010749;28;20407;-48
2022/05/21 03:59:24;;;;;;;5.68;5.18;;;22.20;1.00;;;;;;5014865;28;20030;-45
2022/05/21 04:01:50;;;;;;;7.05;4.50;;;22.10;1.00;;;;;;5013960;28;20057;-43
2022/05/21 04:04:15;;;;;;;8.10;5.60;;;22.30;1.00;;;;;;5015361;28;20033;-44
2022/05/21 04:06:41;;;;;;;7.18;5.75;;;22.40;1.00;;;;;;5013443;28;20360;-45
2022/05/21 04:09:07;;;;;;;7.43;5.13;;;22.40;1.00;;;;;;5014267;28;20030;-43
2022/05/21 04:11:32;;;;;;;7.30;5.75;;;22.40;1.00;;;;;;5013929;28;20466;-46
2022/05/21 04:13:58;;;;;;;7.95;6.00;;;22.50;1.00;;;;;;5014853;28;20033;-50
2022/05/21 04:16:24;;;;;;;9.50;6.53;;;22.60;1.00;;;;;;5007627;28;20125;-43
2022/05/21 04:18:49;;;;;;;11.13;6.50;;;22.60;1.00;;;;;;5013336;28;20032;-45
2022/05/21 04:21:15;;;;;;;15.85;8.02;;;22.40;1.00;;;;;;5013855;28;20030;-48
2022/05/21 04:23:40;;;;;;;10.40;7.97;;;22.30;1.00;;;;;;5013762;28;20050;-46
2022/05/21 04:26:06;;;;;;;10.35;7.97;;;22.50;1.00;;;;;;5013644;28;20078;-48
2022/05/21 04:28:32;;;;;;;11.77;8.32;;;22.50;1.00;;;;;;5013120;28;20056;-44
2022/05/21 04:30:57;;;;;;;9.48;8.30;;;22.20;1.00;;;;;;5013399;28;20026;-45
2022/05/21 04:33:23;;;;;;;15.23;9.02;;;22.40;1.00;;;;;;5012826;28;20104;-48
2022/05/21 04:38:34;;;;;;;10.18;7.18;;;22.30;1.00;;;;;;5005389;28;20037;-50
2022/05/21 04:41:00;;;;;;;9.80;6.88;;;22.10;1.00;;;;;;5013212;28;20037;-44
2022/05/21 04:43:25;;;;;;;7.70;6.47;;;22.20;1.00;;;;;;5014295;28;20018;-48
2022/05/21 04:45:51;;;;;;;8.85;6.68;;;22.20;1.00;;;;;;5008588;28;20029;-46
2022/05/21 04:48:16;;;;;;;6.80;6.13;;;22.30;1.00;;;;;;4993110;28;20037;-45
2022/05/21 04:50:42;;;;;;;9.68;7.10;;;22.30;1.00;;;;;;5009024;28;20037;-46
2022/05/21 04:53:08;;;;;;;10.98;7.35;;;22.10;1.00;;;;;;5012177;28;20037;-44
2022/05/21 04:55:33;;;;;;;8.30;6.72;;;22.20;1.00;;;;;;5012075;28;20037;-50
2022/05/21 04:57:59;;;;;;;6.70;6.00;;;22.30;1.00;;;;;;5013415;28;20029;-45
2022/05/21 05:00:25;;;;;;;8.00;6.57;;;22.40;1.00;;;;;;5013136;28;20491;-49
2022/05/21 05:02:51;;;;;;;7.35;5.90;;;22.40;1.00;;;;;;5013608;28;20052;-49
2022/05/21 05:05:17;;;;;;;7.57;6.65;;;22.40;1.00;;;;;;5014140;28;20029;-46
2022/05/21 05:07:43;;;;;;;9.90;6.75;;;22.30;1.00;;;;;;5012483;28;20033;-46
2022/05/21 05:10:09;;;;;;;8.18;6.70;;;22.30;1.00;;;;;;5012308;28;20498;-46
2022/05/21 05:12:35;;;;;;;7.82;6.57;;;22.30;1.00;;;;;;5013085;28;20041;-48
2022/05/21 05:15:01;;;;;;;7.95;6.00;;;22.30;1.00;;;;;;5013731;28;20499;-43
2022/05/21 05:17:28;;;;;;;10.02;6.72;;;22.20;1.00;;;;;;5012631;28;20092;-47
2022/05/21 05:19:57;;;;;;;7.05;6.40;;;22.30;1.00;;;;;;5012593;28;20018;-42
2022/05/21 05:22:23;;;;;;;8.02;6.00;;;22.50;1.00;;;;;;5011323;28;20026;-43
2022/05/21 05:24:49;;;;;;;7.97;6.15;;;22.50;1.00;;;;;;5013659;28;20100;-44
2022/05/21 05:27:15;;;;;;;8.20;5.75;;;22.50;1.00;;;;;;5012157;28;20037;-45
2022/05/21 05:29:41;;;;;;;11.23;6.40;;;22.40;1.00;;;;;;5013263;28;20029;-43
2022/05/21 05:32:08;;;;;;;8.27;6.03;;;22.30;1.00;;;;;;5011836;28;20033;-46
2022/05/21 05:34:34;;;;;;;7.03;6.40;;;22.50;1.00;;;;;;5012578;28;20511;-44
2022/05/21 05:37:01;;;;;;;6.63;5.60;;;22.30;1.00;;;;;;5011014;28;20046;-47
2022/05/21 05:39:28;;;;;;;10.10;6.60;;;22.40;1.00;;;;;;5013512;28;20029;-43
2022/05/21 05:41:54;;;;;;;9.70;6.68;;;22.60;1.00;;;;;;5012382;28;20105;-47
2022/05/21 05:44:20;;;;;;;10.77;7.43;;;22.30;1.00;;;;;;5013235;28;20022;-45
2022/05/21 05:46:46;;;;;;;8.68;6.63;;;22.40;1.00;;;;;;5011992;28;20022;-44
2022/05/21 05:49:12;;;;;;;11.38;7.45;;;22.40;1.00;;;;;;5013156;28;20033;-45
2022/05/21 05:51:38;;;;;;;10.77;8.70;;;22.40;1.00;;;;;;5010907;28;20030;-42
2022/05/21 05:54:04;;;;;;;10.40;8.35;;;22.40;1.00;;;;;;5005934;28;20388;-44
2022/05/21 05:56:29;;;;;;;9.75;7.65;;;22.50;1.00;;;;;;4993484;28;20045;-45
2022/05/21 06:01:39;;;;;;;8.13;7.22;;;22.50;1.00;;;;;;5012741;28;20056;-43
2022/05/21 06:04:05;;;;;;;10.77;7.15;;;22.60;1.00;;;;;;5012984;28;20104;-43
2022/05/21 06:06:31;;;;;;;9.38;7.38;;;22.70;1.00;;;;;;5012866;28;20084;-46
2022/05/21 06:08:57;;;;;;;8.85;6.93;;;22.50;1.00;;;;;;5011765;28;20077;-44
2022/05/21 06:11:23;;;;;;;12.73;6.72;;;22.50;1.00;;;;;;5013045;28;20029;-48
2022/05/21 06:13:49;;;;;;;9.82;6.05;;;22.60;1.00;;;;;;5011859;28;20533;-46
2022/05/21 06:16:15;;;;;;;7.93;6.57;;;22.70;1.00;;;;;;5012091;28;20052;-48
2022/05/21 06:18:42;;;;;;;8.93;6.63;;;22.80;1.00;;;;;;5012121;28;20026;-45
2022/05/21 06:21:08;;;;;;;9.32;6.28;;;22.90;1.00;;;;;;5010851;28;20121;-46
2022/05/21 06:23:34;;;;;;;9.40;6.32;;;22.90;1.00;;;;;;5011855;28;20022;-43
2022/05/21 06:26:01;;;;;;;8.55;7.70;;;22.90;1.00;;;;;;5012940;28;20042;-48
2022/05/21 06:28:30;;;;;;;8.75;7.78;;;22.90;1.00;;;;;;5012111;28;20050;-42
2022/05/21 06:30:56;;;;;;;11.32;6.78;;;22.80;1.00;;;;;;5011632;28;20044;-45
2022/05/21 06:33:25;;;;;;;7.88;7.07;;;22.90;1.00;;;;;;4999539;28;20026;-44
2022/05/21 06:36:11;;;;;;;7.93;7.20;;;22.90;1.00;;;;;;4993223;28;20081;-42
2022/05/21 06:38:38;;;;;;;8.60;7.25;;;23.10;1.00;;;;;;5006923;28;20022;-47
2022/05/21 06:41:04;;;;;;;8.82;7.30;;;23.00;1.00;;;;;;5012073;28;20038;-41
2022/05/21 06:43:30;;;;;;;7.13;6.43;;;22.90;1.00;;;;;;5002163;28;20026;-42
2022/05/21 06:45:56;;;;;;;6.88;6.18;;;23.00;1.00;;;;;;4996887;28;20042;-42
2022/05/21 06:48:22;;;;;;;8.05;7.05;;;23.00;1.00;;;;;;5007855;28;20032;-44
2022/05/21 06:50:48;;;;;;;9.02;5.93;;;22.90;1.00;;;;;;5003331;28;20030;-42
2022/05/21 06:53:14;;;;;;;8.25;7.35;;;23.10;1.00;;;;;;5008913;28;20148;-42
2022/05/21 06:55:40;;;;;;;12.43;6.85;;;23.00;1.00;;;;;;5010910;28;20077;-42
2022/05/21 06:58:07;;;;;;;8.18;7.38;;;22.90;1.00;;;;;;5010217;28;20038;-44
2022/05/21 07:00:32;;;;;;;10.25;7.72;;;23.10;1.00;;;;;;5012669;28;20030;-42
2022/05/21 07:02:58;;;;;;;9.93;7.32;;;23.10;1.00;;;;;;5011401;28;20100;-43
2022/05/21 07:08:29;;;;;;;7.85;7.05;;;23.20;1.00;;;;;;5011704;28;20061;-43
2022/05/21 07:10:54;;;;;;;12.07;6.95;;;23.20;1.00;;;;;;4994226;28;20526;-42
2022/05/21 07:13:23;;;;;;;8.82;6.75;;;23.30;1.00;;;;;;4995144;28;20073;-43
2022/05/21 07:15:49;;;;;;;7.95;6.82;;;23.40;1.00;;;;;;4999881;28;20045;-44
2022/05/21 07:18:19;;;;;;;7.80;7.00;;;23.30;1.00;;;;;;5013852;28;20028;-43
2022/05/21 07:20:45;;;;;;;12.73;8.02;;;23.20;1.00;;;;;;5016014;28;20030;-44
2022/05/21 07:23:11;;;;;;;8.25;7.15;;;23.40;1.00;;;;;;5015181;28;20083;-45
2022/05/21 07:25:37;;;;;;;8.52;7.07;;;23.50;1.00;;;;;;5015926;28;20431;-48
2022/05/21 07:28:02;;;;;;;8.32;7.53;;;23.50;1.00;;;;;;5015245;28;20030;-47
2022/05/21 07:30:29;;;;;;;8.32;6.85;;;23.50;1.00;;;;;;5015802;28;20041;-46
2022/05/21 07:32:55;;;;;;;7.60;6.90;;;23.70;1.00;;;;;;5008283;28;20113;-48
2022/05/21 07:35:23;;;;;;;7.25;6.65;;;23.70;1.00;;;;;;4996069;28;20546;-46
2022/05/21 07:37:48;;;;;;;8.65;6.95;;;23.70;1.00;;;;;;5001684;28;20145;-43
2022/05/21 07:40:16;;;;;;;9.57;6.97;;;23.70;1.00;;;;;;5015519;28;20105;-46
2022/05/21 07:42:43;;;;;;;9.60;7.32;;;23.70;1.00;;;;;;5008261;28;20033;-47
2022/05/21 07:45:12;;;;;;;9.98;6.80;;;23.80;1.00;;;;;;5008395;28;20021;-46
2022/05/21 07:47:37;;;;;;;13.95;8.23;;;23.80;1.00;;;;;;5014274;28;20080;-45
2022/05/21 07:50:04;;;;;;;10.55;6.88;;;23.90;1.00;;;;;;5015569;28;20030;-43
2022/05/21 07:52:31;;;;;;;9.05;6.65;;;24.00;1.00;;;;;;5014083;28;20029;-48
2022/05/21 07:54:57;;;;;;;7.93;7.03;;;24.00;1.00;;;;;;5015257;28;20053;-45
2022/05/21 07:57:22;;;;;;;8.18;6.82;;;24.00;1.00;;;;;;5012812;28;20553;-43
2022/05/21 07:59:48;;;;;;;7.53;6.22;;;24.00;1.00;;;;;;5015108;28;20021;-49
2022/05/21 08:02:16;;;;;;;8.00;6.47;;;24.10;1.00;;;;;;5013879;28;20175;-43
2022/05/21 08:04:43;;;;;;;9.00;7.35;;;24.10;1.00;;;;;;5014944;28;20356;-45
2022/05/21 08:07:09;;;;;;;8.38;6.32;;;24.10;1.00;;;;;;5014258;28;20026;-43
2022/05/21 08:09:34;;;;;;;9.70;6.57;;;24.10;1.00;;;;;;5014393;28;20368;-42
2022/05/21 08:12:01;;;;;;;9.65;6.63;;;24.20;1.00;;;;;;5014028;28;20030;-43
2022/05/21 08:14:27;;;;;;;8.57;6.40;;;24.10;1.00;;;;;;5013918;28;20183;-45
2022/05/21 08:16:53;;;;;;;8.73;6.68;;;24.20;1.00;;;;;;5014663;28;20041;-47
2022/05/21 08:19:18;;;;;;;6.28;5.70;;;24.20;1.00;;;;;;5012903;28;20026;-43
2022/05/21 08:21:44;;;;;;;7.70;5.47;;;24.30;1.00;;;;;;5013050;28;20032;-45
2022/05/21 08:26:57;;;;;;;10.05;6.00;;;24.40;1.00;;;;;;5013197;28;20040;-44
2022/05/21 08:29:31;;;;;;;11.57;5.90;;;24.40;1.00;;;;;;5012911;28;20018;-43
2022/05/21 08:31:58;;;;;;;8.15;5.60;;;24.60;1.00;;;;;;5013193;28;20037;-45
2022/05/21 08:34:25;;;;;;;7.55;5.70;;;24.50;1.00;;;;;;5007376;28;20038;-46
2022/05/21 08:36:51;;;;;;;7.90;5.07;;;24.60;1.00;;;;;;5012522;28;20037;-48
2022/05/21 08:39:17;;;;;;;6.80;5.10;;;24.60;1.00;;;;;;5013820;28;20022;-43
2022/05/21 08:41:57;;;;;;;7.63;5.40;;;24.70;1.00;;;;;;5029684;28;20118;-45
2022/05/21 08:44:41;;;;;;;9.07;7.30;;;24.70;1.00;;;;;;5012658;28;20034;-48
2022/05/21 08:47:19;;;;;;;6.45;5.75;;;24.70;1.00;;;;;;5014639;28;20030;-44
2022/05/21 08:49:59;;;;;;;10.93;6.60;;;24.80;1.00;;;;;;5013725;28;20026;-44
2022/05/21 08:52:46;;;;;;;6.22;5.63;;;24.80;1.00;;;;;;5013185;28;20445;-45
2022/05/21 08:55:28;;;;;;;10.65;5.97;;;25.00;1.00;;;;;;5001413;28;20056;-49
2022/05/21 08:58:01;;;;;;;9.48;6.43;;;25.00;1.00;;;;;;5009739;28;20030;-47
2022/05/21 09:00:35;;;;;;;10.70;6.50;;;25.10;1.00;;;;;;5010693;28;20491;-48
2022/05/21 09:03:06;;;;;;;10.48;6.60;;;25.10;1.00;;;;;;5010413;28;20046;-45
2022/05/21 09:05:32;;;;;;;12.25;6.57;;;25.20;1.00;;;;;;5012132;28;20468;-47
2022/05/21 09:08:20;;;;;;;7.50;6.07;;;25.20;1.00;;;;;;5012597;28;20034;-43
2022/05/21 09:11:01;;;;;;;10.10;5.80;;;25.20;1.00;;;;;;5013963;28;20025;-50
2022/05/21 09:13:55;;;;;;;11.27;6.00;;;25.30;1.00;;;;;;5012923;28;20029;-43
2022/05/21 09:19:08;;;;;;;8.13;6.35;;;25.40;1.00;;;;;;5012387;28;20088;-47
2022/05/21 09:21:38;;;;;;;5.70;5.20;;;25.60;1.00;;;;;;5013809;28;20046;-45
2022/05/21 09:24:05;;;;;;;7.63;5.15;;;25.70;1.00;;;;;;5012780;28;20037;-46
2022/05/21 09:26:45;;;;;;;8.88;5.07;;;25.70;1.00;;;;;;5013728;28;20033;-45
2022/05/21 09:29:28;;;;;;;7.75;5.53;;;25.70;1.00;;;;;;5012543;28;20045;-45
2022/05/21 09:31:55;;;;;;;6.55;5.28;;;25.80;1.00;;;;;;5012595;28;20029;-42
2022/05/21 09:34:25;;;;;;;9.00;6.15;;;25.70;1.00;;;;;;5010830;28;20030;-43
2022/05/21 09:36:51;;;;;;;6.63;5.45;;;25.80;1.00;;;;;;5013230;28;20038;-44
2022/05/21 09:39:30;;;;;;;9.02;6.20;;;25.90;1.00;;;;;;5011519;28;20041;-46
2022/05/21 09:45:22;;;;;;;9.48;5.97;;;26.00;1.00;;;;;;5010849;28;20503;-42
2022/05/21 09:48:03;;;;;;;6.63;5.22;;;26.20;1.00;;;;;;5012063;28;20084;-44
2022/05/21 09:50:31;;;;;;;6.35;5.25;;;26.20;1.00;;;;;;5011348;28;20030;-44
2022/05/21 09:52:57;;;;;;;8.98;5.88;;;26.30;1.00;;;;;;5012465;28;20055;-48
2022/05/21 09:55:28;;;;;;;5.85;5.25;;;26.30;1.00;;;;;;5009625;28;20497;-45
2022/05/21 09:58:07;;;;;;;8.88;6.22;;;26.30;1.00;;;;;;4993863;28;20061;-47
2022/05/21 10:00:37;;;;;;;7.13;5.25;;;26.40;1.00;;;;;;5012422;28;20030;-47
2022/05/21 10:03:07;;;;;;;8.25;5.47;;;26.50;1.00;;;;;;5012011;28;20392;-45
2022/05/21 10:05:53;;;;;;;7.30;5.30;;;26.40;1.00;;;;;;5012758;28;20030;-45
2022/05/21 10:11:36;;;;;;;11.95;5.82;;;26.60;1.00;;;;;;5013431;28;20088;-44
2022/05/21 10:14:06;;;;;;;7.57;6.72;;;26.70;1.00;;;;;;5011687;28;20033;-44
2022/05/21 10:16:45;;;;;;;7.22;6.32;;;26.70;1.00;;;;;;5013461;28;20442;-45
2022/05/21 10:19:42;;;;;;;9.73;5.63;;;26.80;1.00;;;;;;5012157;28;20022;-44
2022/05/21 10:22:15;;;;;;;8.15;6.60;;;26.80;1.00;;;;;;5009535;28;20022;-45
2022/05/21 10:24:58;;;;;;;10.15;6.93;;;27.00;1.00;;;;;;5011228;28;20026;-44
2022/05/21 10:27:54;;;;;;;10.00;6.60;;;27.00;1.00;;;;;;5010445;28;20030;-49
2022/05/21 10:30:45;;;;;;;7.95;7.10;;;27.30;1.00;;;;;;4996341;28;20050;-45
2022/05/21 10:33:41;;;;;;;10.75;7.10;;;27.40;1.00;;;;;;4996323;28;20041;-50
2022/05/21 10:36:25;;;;;;;8.30;6.50;;;27.60;1.00;;;;;;5008996;28;20046;-51
2022/05/21 10:38:50;;;;;;;;;;;27.50;1.00;;;;;;5006837;28;20045;-45
2022/05/21 10:41:55;;;;;;;8.77;6.07;;;27.60;1.00;;;;;;5005597;28;20417;-51
2022/05/21 10:44:46;;;;;;;7.30;6.50;;;27.70;1.00;;;;;;5016190;28;20041;-44
2022/05/21 10:47:27;;;;;;;9.25;6.93;;;28.00;1.00;;;;;;5014541;28;20052;-46
2022/05/21 10:50:24;;;;;;;8.15;6.82;;;28.10;1.00;;;;;;5015791;28;20029;-50
2022/05/21 10:53:07;;;;;;;11.98;7.03;;;28.20;1.00;;;;;;4985924;28;20050;-48
2022/05/21 10:55:54;;;;;;;8.65;7.22;;;28.20;1.00;;;;;;5015525;28;20026;-51
2022/05/21 10:58:38;;;;;;;11.52;7.65;;;28.30;1.00;;;;;;5014606;28;20112;-47
2022/05/21 11:01:13;;;;;;;;;;;28.40;1.00;;;;;;5016888;28;20368;-50
2022/05/21 11:04:11;;;;;;;8.43;7.38;;;28.50;1.00;;;;;;4995718;28;19918;-48
2022/05/21 11:07:05;;;;;;;10.25;7.47;;;28.50;1.00;;;;;;4995717;28;20026;-50
2022/05/21 11:09:42;;;;;;;9.17;6.50;;;28.50;1.00;;;;;;4995481;28;20129;-48
2022/05/21 11:12:11;;;;;;;9.02;6.43;;;28.70;1.00;;;;;;4996654;28;20022;-51
2022/05/21 11:14:49;;;;;;;8.13;6.43;;;28.60;1.00;;;;;;4993301;28;20038;-50
2022/05/21 11:17:26;;;;;;;13.77;7.20;;;28.60;1.00;;;;;;4995463;28;20085;-50
2022/05/21 11:20:23;;;;;;;11.20;7.40;;;28.80;1.00;;;;;;4990495;28;20438;-50
2022/05/21 11:23:26;;;;;;;11.98;6.90;;;28.80;1.00;;;;;;4976781;28;20093;-52
2022/05/21 11:25:58;;;;;;;9.02;6.88;;;28.90;1.00;;;;;;4972029;28;20034;-48
2022/05/21 11:28:43;;;;;;;8.02;6.00;;;28.90;1.00;;;;;;4976085;28;20486;-49
2022/05/21 11:31:13;;;;;;;9.98;6.30;;;28.90;1.00;;;;;;4996065;28;20022;-46
2022/05/21 11:39:15;;;;;;;10.57;6.70;;;29.10;1.00;;;;;;4994763;28;20122;-48
2022/05/21 11:41:55;;;;;;;10.38;6.25;;;29.20;1.00;;;;;;4996263;28;20034;-50
2022/05/21 11:47:20;;;;;;;8.18;5.75;;;29.50;1.00;;;;;;4976132;28;20041;-48
2022/05/21 11:49:59;;;;;;;7.53;5.75;;;29.60;1.00;;;;;;4987200;28;20057;-45
2022/05/21 11:52:28;;;;;;;6.05;5.47;;;29.60;1.00;;;;;;4995736;28;20392;-48
2022/05/21 11:54:53;;;;;;;8.25;5.80;;;29.80;1.00;;;;;;4994313;28;20042;-47
2022/05/21 11:57:43;;;;;;;6.88;4.85;;;29.70;1.00;;;;;;4994832;28;20145;-51
2022/05/21 12:00:29;;;;;;;6.13;5.50;;;29.70;1.00;;;;;;4980030;28;20125;-49
2022/05/21 12:02:54;;;;;;;8.38;5.75;;;30.10;1.00;;;;;;4988021;28;20046;-50
2022/05/21 12:05:35;;;;;;;6.57;5.18;;;30.50;1.00;;;;;;5010651;28;20112;-46
2022/05/21 12:08:22;;;;;;;9.48;5.90;;;30.70;1.00;;;;;;5015147;28;20056;-43
2022/05/21 12:10:55;;;;;;;5.95;5.25;;;30.80;1.00;;;;;;5014382;28;20037;-43
2022/05/21 12:13:33;;;;;;;8.75;6.15;;;30.80;1.00;;;;;;5013613;28;20030;-45
2022/05/21 12:16:01;;;;;;;6.75;5.90;;;30.90;1.00;;;;;;5012104;28;20439;-48
2022/05/21 12:18:34;;;;;;;6.25;5.35;;;31.00;1.00;;;;;;5012284;28;20026;-49
2022/05/21 12:21:00;;;;;;;12.07;6.00;;;31.20;1.00;;;;;;4995311;28;20110;-47
2022/05/21 12:23:31;;;;;;;6.72;6.13;;;31.50;1.00;;;;;;4995225;28;20066;-49
2022/05/21 12:26:02;;;;;;;7.15;6.45;;;31.40;1.00;;;;;;5014308;28;20037;-51
2022/05/21 12:29:07;;;;;;;8.80;6.18;;;31.70;1.00;;;;;;5014712;28;20034;-50
2022/05/21 12:31:44;;;;;;;7.13;5.35;;;31.70;1.00;;;;;;4979830;28;20042;-46
2022/05/21 12:34:12;;;;;;;6.80;6.13;;;32.00;1.00;;;;;;5011088;28;20064;-47
2022/05/21 12:36:50;;;;;;;12.00;6.47;;;32.40;1.00;;;;;;4994940;28;20403;-45
2022/05/21 12:39:42;;;;;;;8.30;6.53;;;32.60;1.00;;;;;;4999151;28;20487;-49
2022/05/21 12:42:29;;;;;;;8.40;6.10;;;32.40;1.00;;;;;;5014631;28;20085;-43
2022/05/21 12:44:54;;;;;;;9.73;6.88;;;32.10;1.00;;;;;;5013029;28;20037;-47
2022/05/21 12:47:27;;;;;;;8.05;6.93;;;33.00;1.00;;;;;;5014556;28;20026;-46
2022/05/21 12:49:54;;;;;;;7.82;6.93;;;33.70;1.00;;;;;;5012603;28;20017;-46
2022/05/21 12:52:29;;;;;;;7.60;6.28;;;35.00;1.00;;;;;;5013519;28;20440;-50
2022/05/21 12:55:34;;;;;;;8.27;6.55;;;35.00;1.00;;;;;;5012625;28;20108;-48
2022/05/21 12:58:08;;;;;;;7.85;6.93;;;35.50;1.00;;;;;;5012242;28;20074;-46
2022/05/21 13:00:35;;;;;;;7.53;6.65;;;36.20;1.00;;;;;;5012822;28;20037;-44
2022/05/21 13:03:09;;;;;;;7.97;6.78;;;37.70;1.00;;;;;;5013385;28;20049;-46
2022/05/21 13:05:40;;;;;;;7.85;7.10;;;37.90;1.00;;;;;;5012762;28;20084;-47
2022/05/21 13:08:06;;;;;;;9.30;7.10;;;37.20;1.00;;;;;;5011693;28;20022;-51
2022/05/21 13:10:34;;;;;;;10.07;6.53;;;36.40;1.00;;;;;;5012227;28;20038;-43
2022/05/21 13:13:22;;;;;;;7.40;6.63;;;35.80;1.00;;;;;;5013458;28;20024;-47
2022/05/21 13:15:59;;;;;;;13.18;6.47;;;35.50;1.00;;;;;;5013145;28;20045;-47
2022/05/21 13:18:42;;;;;;;9.55;6.78;;;35.40;1.00;;;;;;5013436;28;20141;-48
2022/05/21 13:21:29;;;;;;;7.32;6.63;;;34.60;1.00;;;;;;5013222;28;20022;-43
2022/05/21 13:24:07;;;;;;;7.93;6.20;;;34.30;1.00;;;;;;5012475;28;20033;-45
2022/05/21 13:26:35;;;;;;;8.50;6.13;;;34.40;1.00;;;;;;4992863;28;20500;-45
2022/05/21 13:29:22;;;;;;;8.13;6.00;;;34.40;1.00;;;;;;4994978;28;20022;-46
2022/05/21 13:31:50;;;;;;;6.85;6.13;;;34.30;1.00;;;;;;5012445;28;20045;-46
2022/05/21 13:34:20;;;;;;;9.60;6.50;;;34.10;1.00;;;;;;5007877;28;20028;-44
2022/05/21 13:36:59;;;;;;;6.53;6.03;;;34.30;1.00;;;;;;4992441;28;20035;-48
2022/05/21 13:39:31;;;;;;;8.07;5.93;;;34.70;1.00;;;;;;4998398;28;20050;-46
2022/05/21 13:42:13;;;;;;;5.68;5.28;;;35.30;1.00;;;;;;5013343;28;20530;-43
2022/05/21 13:44:41;;;;;;;8.20;5.80;;;35.60;1.00;;;;;;5012649;28;20472;-45
2022/05/21 13:47:24;;;;;;;6.65;5.85;;;34.90;1.00;;;;;;5012100;28;20066;-45
2022/05/21 13:49:53;;;;;;;10.50;5.50;;;34.70;1.00;;;;;;5003833;28;20113;-51
2022/05/21 13:52:19;;;;;;;11.98;5.75;;;35.10;1.00;;;;;;4993534;28;20058;-47
2022/05/21 13:54:46;;;;;;;10.10;6.40;;;34.50;1.00;;;;;;4992762;28;20030;-46